sensor_id;sensor_type;location;lat;lon;timestamp;P1;durP1;ratioP1;P2;durP2;ratioP2
48621;SDS011;34421;48.944;9.460;2023-12-20T00:01:15;6.00;;;2.92;;
48621;SDS011;34421;48.944;9.460;2023-12-20T00:03:40;4.25;;;1.70;;
48621;SDS011;34421;48.944;9.460;2023-12-20T00:06:06;2.17;;;1.10;;
48621;SDS011;34421;48.944;9.460;2023-12-20T00:08:31;2.75;;;1.05;;
48621;SDS011;34421;48.944;9.460;2023-12-20T00:10:56;2.00;;;1.00;;
48621;SDS011;34421;48.944;9.460;2023-12-20T00:13:22;2.47;;;1.10;;
48621;SDS011;34421;48.944;9.460;2023-12-20T00:15:47;3.08;;;1.35;;
48621;SDS011;34421;48.944;9.460;2023-12-20T00:18:12;2.00;;;1.15;;
48621;SDS011;34421;48.944;9.460;2023-12-20T00:20:37;3.22;;;1.45;;
48621;SDS011;34421;48.944;9.460;2023-12-20T00:23:03;3.53;;;1.75;;
48621;SDS011;34421;48.944;9.460;2023-12-20T00:25:28;5.03;;;2.53;;
48621;SDS011;34421;48.944;9.460;2023-12-20T00:27:54;4.75;;;2.70;;
48621;SDS011;34421;48.944;9.460;2023-12-20T00:30:19;5.30;;;2.38;;
48621;SDS011;34421;48.944;9.460;2023-12-20T00:32:44;4.13;;;2.17;;
48621;SDS011;34421;48.944;9.460;2023-12-20T00:35:12;4.70;;;2.25;;
48621;SDS011;34421;48.944;9.460;2023-12-20T00:37:38;2.40;;;1.23;;
48621;SDS011;34421;48.944;9.460;2023-12-20T00:40:04;4.10;;;1.65;;
48621;SDS011;34421;48.944;9.460;2023-12-20T00:42:30;4.85;;;1.88;;
48621;SDS011;34421;48.944;9.460;2023-12-20T00:44:55;2.78;;;1.60;;
48621;SDS011;34421;48.944;9.460;2023-12-20T00:47:20;3.33;;;1.70;;
48621;SDS011;34421;48.944;9.460;2023-12-20T00:49:47;2.55;;;1.63;;
48621;SDS011;34421;48.944;9.460;2023-12-20T00:52:12;2.88;;;1.83;;
48621;SDS011;34421;48.944;9.460;2023-12-20T00:54:37;4.32;;;2.30;;
48621;SDS011;34421;48.944;9.460;2023-12-20T00:57:03;3.42;;;1.67;;
48621;SDS011;34421;48.944;9.460;2023-12-20T00:59:28;3.47;;;1.45;;
48621;SDS011;34421;48.944;9.460;2023-12-20T01:01:53;4.40;;;1.98;;
48621;SDS011;34421;48.944;9.460;2023-12-20T01:04:19;3.22;;;1.70;;
48621;SDS011;34421;48.944;9.460;2023-12-20T01:06:44;3.67;;;2.08;;
48621;SDS011;34421;48.944;9.460;2023-12-20T01:09:09;3.33;;;1.75;;
48621;SDS011;34421;48.944;9.460;2023-12-20T01:11:35;2.47;;;1.40;;
48621;SDS011;34421;48.944;9.460;2023-12-20T01:14:00;4.05;;;1.85;;
48621;SDS011;34421;48.944;9.460;2023-12-20T01:16:25;4.00;;;1.98;;
48621;SDS011;34421;48.944;9.460;2023-12-20T01:18:50;3.85;;;1.65;;
48621;SDS011;34421;48.944;9.460;2023-12-20T01:21:16;4.78;;;1.90;;
48621;SDS011;34421;48.944;9.460;2023-12-20T01:23:41;2.53;;;1.30;;
48621;SDS011;34421;48.944;9.460;2023-12-20T01:26:06;3.78;;;1.90;;
48621;SDS011;34421;48.944;9.460;2023-12-20T01:28:32;2.97;;;1.75;;
48621;SDS011;34421;48.944;9.460;2023-12-20T01:30:57;3.30;;;1.42;;
48621;SDS011;34421;48.944;9.460;2023-12-20T01:33:23;2.80;;;1.48;;
48621;SDS011;34421;48.944;9.460;2023-12-20T01:35:48;3.08;;;1.45;;
48621;SDS011;34421;48.944;9.460;2023-12-20T01:38:13;2.97;;;1.50;;
48621;SDS011;34421;48.944;9.460;2023-12-20T01:40:39;3.58;;;1.92;;
48621;SDS011;34421;48.944;9.460;2023-12-20T01:43:07;3.42;;;2.10;;
48621;SDS011;34421;48.944;9.460;2023-12-20T01:45:34;3.17;;;1.48;;
48621;SDS011;34421;48.944;9.460;2023-12-20T01:47:59;2.97;;;1.52;;
48621;SDS011;34421;48.944;9.460;2023-12-20T01:50:27;3.13;;;1.95;;
48621;SDS011;34421;48.944;9.460;2023-12-20T01:52:53;3.33;;;1.70;;
48621;SDS011;34421;48.944;9.460;2023-12-20T01:55:22;3.80;;;2.00;;
48621;SDS011;34421;48.944;9.460;2023-12-20T01:57:48;2.75;;;1.50;;
48621;SDS011;34421;48.944;9.460;2023-12-20T02:00:14;2.88;;;1.38;;
48621;SDS011;34421;48.944;9.460;2023-12-20T02:02:40;2.65;;;1.42;;
48621;SDS011;34421;48.944;9.460;2023-12-20T02:05:06;3.90;;;1.55;;
48621;SDS011;34421;48.944;9.460;2023-12-20T02:07:32;4.35;;;2.05;;
48621;SDS011;34421;48.944;9.460;2023-12-20T02:09:59;2.55;;;1.50;;
48621;SDS011;34421;48.944;9.460;2023-12-20T02:12:24;3.85;;;1.77;;
48621;SDS011;34421;48.944;9.460;2023-12-20T02:14:50;3.90;;;1.98;;
48621;SDS011;34421;48.944;9.460;2023-12-20T02:17:15;2.97;;;1.50;;
48621;SDS011;34421;48.944;9.460;2023-12-20T02:19:41;2.08;;;1.17;;
48621;SDS011;34421;48.944;9.460;2023-12-20T02:22:07;3.70;;;1.67;;
48621;SDS011;34421;48.944;9.460;2023-12-20T02:24:36;3.55;;;1.40;;
48621;SDS011;34421;48.944;9.460;2023-12-20T02:27:02;4.03;;;1.65;;
48621;SDS011;34421;48.944;9.460;2023-12-20T02:29:28;3.05;;;1.63;;
48621;SDS011;34421;48.944;9.460;2023-12-20T02:31:53;2.38;;;1.30;;
48621;SDS011;34421;48.944;9.460;2023-12-20T02:34:18;2.60;;;1.23;;
48621;SDS011;34421;48.944;9.460;2023-12-20T02:36:44;3.60;;;1.40;;
48621;SDS011;34421;48.944;9.460;2023-12-20T02:39:09;2.45;;;1.25;;
48621;SDS011;34421;48.944;9.460;2023-12-20T02:41:34;2.60;;;1.02;;
48621;SDS011;34421;48.944;9.460;2023-12-20T02:44:01;2.83;;;1.40;;
48621;SDS011;34421;48.944;9.460;2023-12-20T02:46:27;2.53;;;1.38;;
48621;SDS011;34421;48.944;9.460;2023-12-20T02:48:52;3.33;;;1.58;;
48621;SDS011;34421;48.944;9.460;2023-12-20T02:51:18;3.08;;;1.42;;
48621;SDS011;34421;48.944;9.460;2023-12-20T02:53:43;1.80;;;0.98;;
48621;SDS011;34421;48.944;9.460;2023-12-20T02:56:08;2.72;;;1.05;;
48621;SDS011;34421;48.944;9.460;2023-12-20T02:58:34;2.60;;;1.25;;
48621;SDS011;34421;48.944;9.460;2023-12-20T03:00:59;2.28;;;1.20;;
48621;SDS011;34421;48.944;9.460;2023-12-20T03:03:24;2.13;;;1.30;;
48621;SDS011;34421;48.944;9.460;2023-12-20T03:05:50;2.22;;;1.20;;
48621;SDS011;34421;48.944;9.460;2023-12-20T03:08:15;2.33;;;1.08;;
48621;SDS011;34421;48.944;9.460;2023-12-20T03:10:40;3.10;;;1.35;;
48621;SDS011;34421;48.944;9.460;2023-12-20T03:13:06;2.45;;;1.63;;
48621;SDS011;34421;48.944;9.460;2023-12-20T03:15:31;2.65;;;1.10;;
48621;SDS011;34421;48.944;9.460;2023-12-20T03:17:56;1.90;;;0.98;;
48621;SDS011;34421;48.944;9.460;2023-12-20T03:20:24;1.05;;;0.68;;
48621;SDS011;34421;48.944;9.460;2023-12-20T03:22:50;2.60;;;1.10;;
48621;SDS011;34421;48.944;9.460;2023-12-20T03:25:16;1.88;;;0.80;;
48621;SDS011;34421;48.944;9.460;2023-12-20T03:27:41;1.58;;;0.70;;
48621;SDS011;34421;48.944;9.460;2023-12-20T03:30:06;2.33;;;0.93;;
48621;SDS011;34421;48.944;9.460;2023-12-20T03:32:32;2.03;;;0.95;;
48621;SDS011;34421;48.944;9.460;2023-12-20T03:34:57;1.90;;;0.75;;
48621;SDS011;34421;48.944;9.460;2023-12-20T03:37:23;0.88;;;0.60;;
48621;SDS011;34421;48.944;9.460;2023-12-20T03:39:48;1.00;;;0.50;;
48621;SDS011;34421;48.944;9.460;2023-12-20T03:42:13;0.88;;;0.30;;
48621;SDS011;34421;48.944;9.460;2023-12-20T03:44:39;1.05;;;0.30;;
48621;SDS011;34421;48.944;9.460;2023-12-20T03:47:05;0.77;;;0.30;;
48621;SDS011;34421;48.944;9.460;2023-12-20T03:49:30;0.63;;;0.30;;
48621;SDS011;34421;48.944;9.460;2023-12-20T03:51:56;0.63;;;0.20;;
48621;SDS011;34421;48.944;9.460;2023-12-20T03:54:21;0.50;;;0.20;;
48621;SDS011;34421;48.944;9.460;2023-12-20T03:56:46;0.75;;;0.20;;
48621;SDS011;34421;48.944;9.460;2023-12-20T03:59:11;0.40;;;0.10;;
48621;SDS011;34421;48.944;9.460;2023-12-20T04:01:39;0.13;;;0.10;;
48621;SDS011;34421;48.944;9.460;2023-12-20T04:04:08;0.93;;;0.20;;
48621;SDS011;34421;48.944;9.460;2023-12-20T04:06:33;0.13;;;0.10;;
48621;SDS011;34421;48.944;9.460;2023-12-20T04:08:59;0.10;;;0.08;;
48621;SDS011;34421;48.944;9.460;2023-12-20T04:11:24;0.05;;;0.00;;
48621;SDS011;34421;48.944;9.460;2023-12-20T04:13:50;0.47;;;0.30;;
48621;SDS011;34421;48.944;9.460;2023-12-20T04:16:15;0.30;;;0.20;;
48621;SDS011;34421;48.944;9.460;2023-12-20T04:18:40;0.40;;;0.00;;
48621;SDS011;34421;48.944;9.460;2023-12-20T04:21:06;0.38;;;0.10;;
48621;SDS011;34421;48.944;9.460;2023-12-20T04:23:32;0.30;;;0.10;;
48621;SDS011;34421;48.944;9.460;2023-12-20T04:25:57;0.22;;;0.10;;
48621;SDS011;34421;48.944;9.460;2023-12-20T04:28:22;0.43;;;0.10;;
48621;SDS011;34421;48.944;9.460;2023-12-20T04:30:48;0.10;;;0.00;;
48621;SDS011;34421;48.944;9.460;2023-12-20T04:33:13;0.30;;;0.05;;
48621;SDS011;34421;48.944;9.460;2023-12-20T04:35:39;0.60;;;0.10;;
48621;SDS011;34421;48.944;9.460;2023-12-20T04:38:05;0.03;;;0.00;;
48621;SDS011;34421;48.944;9.460;2023-12-20T04:40:31;0.28;;;0.20;;
48621;SDS011;34421;48.944;9.460;2023-12-20T04:42:56;0.10;;;0.00;;
48621;SDS011;34421;48.944;9.460;2023-12-20T04:45:22;0.20;;;0.10;;
48621;SDS011;34421;48.944;9.460;2023-12-20T04:47:49;0.20;;;0.20;;
48621;SDS011;34421;48.944;9.460;2023-12-20T04:50:15;0.10;;;0.00;;
48621;SDS011;34421;48.944;9.460;2023-12-20T04:52:40;0.10;;;0.03;;
48621;SDS011;34421;48.944;9.460;2023-12-20T04:55:06;0.38;;;0.10;;
48621;SDS011;34421;48.944;9.460;2023-12-20T04:57:32;0.10;;;0.10;;
48621;SDS011;34421;48.944;9.460;2023-12-20T04:59:57;0.10;;;0.10;;
48621;SDS011;34421;48.944;9.460;2023-12-20T05:02:22;0.25;;;0.05;;
48621;SDS011;34421;48.944;9.460;2023-12-20T05:04:48;0.20;;;0.10;;
48621;SDS011;34421;48.944;9.460;2023-12-20T05:07:13;0.25;;;0.10;;
48621;SDS011;34421;48.944;9.460;2023-12-20T05:09:38;0.15;;;0.10;;
48621;SDS011;34421;48.944;9.460;2023-12-20T05:12:04;0.25;;;0.20;;
48621;SDS011;34421;48.944;9.460;2023-12-20T05:14:29;0.05;;;0.05;;
48621;SDS011;34421;48.944;9.460;2023-12-20T05:16:55;0.30;;;0.10;;
48621;SDS011;34421;48.944;9.460;2023-12-20T05:19:21;0.20;;;0.10;;
48621;SDS011;34421;48.944;9.460;2023-12-20T05:21:47;0.20;;;0.10;;
48621;SDS011;34421;48.944;9.460;2023-12-20T05:24:12;0.25;;;0.10;;
48621;SDS011;34421;48.944;9.460;2023-12-20T05:26:37;0.10;;;0.10;;
48621;SDS011;34421;48.944;9.460;2023-12-20T05:29:03;0.28;;;0.15;;
48621;SDS011;34421;48.944;9.460;2023-12-20T05:31:28;0.10;;;0.10;;
48621;SDS011;34421;48.944;9.460;2023-12-20T05:33:53;0.65;;;0.10;;
48621;SDS011;34421;48.944;9.460;2023-12-20T05:36:18;0.77;;;0.30;;
48621;SDS011;34421;48.944;9.460;2023-12-20T05:38:44;0.52;;;0.10;;
48621;SDS011;34421;48.944;9.460;2023-12-20T05:41:10;1.35;;;0.20;;
48621;SDS011;34421;48.944;9.460;2023-12-20T05:43:35;0.30;;;0.10;;
48621;SDS011;34421;48.944;9.460;2023-12-20T05:46:00;0.68;;;0.10;;
48621;SDS011;34421;48.944;9.460;2023-12-20T05:48:26;0.10;;;0.10;;
48621;SDS011;34421;48.944;9.460;2023-12-20T05:50:51;0.20;;;0.13;;
48621;SDS011;34421;48.944;9.460;2023-12-20T05:53:16;0.93;;;0.30;;
48621;SDS011;34421;48.944;9.460;2023-12-20T05:55:41;1.48;;;0.35;;
48621;SDS011;34421;48.944;9.460;2023-12-20T05:58:07;1.15;;;0.40;;
48621;SDS011;34421;48.944;9.460;2023-12-20T06:00:32;0.30;;;0.20;;
48621;SDS011;34421;48.944;9.460;2023-12-20T06:02:57;0.40;;;0.20;;
48621;SDS011;34421;48.944;9.460;2023-12-20T06:05:23;0.50;;;0.35;;
48621;SDS011;34421;48.944;9.460;2023-12-20T06:07:48;0.35;;;0.28;;
48621;SDS011;34421;48.944;9.460;2023-12-20T06:10:15;0.38;;;0.22;;
48621;SDS011;34421;48.944;9.460;2023-12-20T06:12:41;0.93;;;0.50;;
48621;SDS011;34421;48.944;9.460;2023-12-20T06:15:06;0.50;;;0.35;;
48621;SDS011;34421;48.944;9.460;2023-12-20T06:17:32;0.80;;;0.35;;
48621;SDS011;34421;48.944;9.460;2023-12-20T06:19:57;0.52;;;0.32;;
48621;SDS011;34421;48.944;9.460;2023-12-20T06:22:23;0.88;;;0.47;;
48621;SDS011;34421;48.944;9.460;2023-12-20T06:24:48;0.80;;;0.32;;
48621;SDS011;34421;48.944;9.460;2023-12-20T06:27:13;0.90;;;0.40;;
48621;SDS011;34421;48.944;9.460;2023-12-20T06:29:39;0.68;;;0.30;;
48621;SDS011;34421;48.944;9.460;2023-12-20T06:32:06;0.88;;;0.35;;
48621;SDS011;34421;48.944;9.460;2023-12-20T06:34:32;0.85;;;0.30;;
48621;SDS011;34421;48.944;9.460;2023-12-20T06:36:57;1.48;;;0.40;;
48621;SDS011;34421;48.944;9.460;2023-12-20T06:39:22;0.88;;;0.30;;
48621;SDS011;34421;48.944;9.460;2023-12-20T06:41:48;1.25;;;0.43;;
48621;SDS011;34421;48.944;9.460;2023-12-20T06:44:13;1.17;;;0.50;;
48621;SDS011;34421;48.944;9.460;2023-12-20T06:46:38;1.65;;;0.65;;
48621;SDS011;34421;48.944;9.460;2023-12-20T06:49:03;1.45;;;0.60;;
48621;SDS011;34421;48.944;9.460;2023-12-20T06:51:29;1.05;;;0.30;;
48621;SDS011;34421;48.944;9.460;2023-12-20T06:53:55;0.75;;;0.50;;
48621;SDS011;34421;48.944;9.460;2023-12-20T06:56:21;0.85;;;0.35;;
48621;SDS011;34421;48.944;9.460;2023-12-20T06:58:46;1.73;;;0.63;;
48621;SDS011;34421;48.944;9.460;2023-12-20T07:01:12;1.65;;;0.88;;
48621;SDS011;34421;48.944;9.460;2023-12-20T07:03:38;1.63;;;0.73;;
48621;SDS011;34421;48.944;9.460;2023-12-20T07:06:04;0.80;;;0.40;;
48621;SDS011;34421;48.944;9.460;2023-12-20T07:08:30;1.35;;;0.57;;
48621;SDS011;34421;48.944;9.460;2023-12-20T07:10:55;1.20;;;0.60;;
48621;SDS011;34421;48.944;9.460;2023-12-20T07:13:20;1.98;;;0.85;;
48621;SDS011;34421;48.944;9.460;2023-12-20T07:15:48;0.93;;;0.57;;
48621;SDS011;34421;48.944;9.460;2023-12-20T07:18:13;1.25;;;0.65;;
48621;SDS011;34421;48.944;9.460;2023-12-20T07:20:39;1.27;;;0.57;;
48621;SDS011;34421;48.944;9.460;2023-12-20T07:23:04;1.85;;;0.68;;
48621;SDS011;34421;48.944;9.460;2023-12-20T07:25:29;0.90;;;0.52;;
48621;SDS011;34421;48.944;9.460;2023-12-20T07:27:57;1.67;;;0.88;;
48621;SDS011;34421;48.944;9.460;2023-12-20T07:30:23;1.17;;;0.75;;
48621;SDS011;34421;48.944;9.460;2023-12-20T07:32:48;2.13;;;1.00;;
48621;SDS011;34421;48.944;9.460;2023-12-20T07:35:15;1.58;;;0.90;;
48621;SDS011;34421;48.944;9.460;2023-12-20T07:37:40;1.73;;;0.80;;
48621;SDS011;34421;48.944;9.460;2023-12-20T07:40:06;1.27;;;0.90;;
48621;SDS011;34421;48.944;9.460;2023-12-20T07:42:32;1.77;;;1.05;;
48621;SDS011;34421;48.944;9.460;2023-12-20T07:44:57;2.10;;;1.08;;
48621;SDS011;34421;48.944;9.460;2023-12-20T07:47:23;2.15;;;1.25;;
48621;SDS011;34421;48.944;9.460;2023-12-20T07:49:50;2.75;;;1.40;;
48621;SDS011;34421;48.944;9.460;2023-12-20T07:52:17;1.58;;;0.93;;
48621;SDS011;34421;48.944;9.460;2023-12-20T07:54:43;2.45;;;1.15;;
48621;SDS011;34421;48.944;9.460;2023-12-20T07:57:08;1.98;;;1.23;;
48621;SDS011;34421;48.944;9.460;2023-12-20T07:59:33;1.67;;;1.10;;
48621;SDS011;34421;48.944;9.460;2023-12-20T08:01:59;2.80;;;1.48;;
48621;SDS011;34421;48.944;9.460;2023-12-20T08:04:24;2.00;;;1.00;;
48621;SDS011;34421;48.944;9.460;2023-12-20T08:06:50;2.00;;;0.90;;
48621;SDS011;34421;48.944;9.460;2023-12-20T08:09:15;2.42;;;1.50;;
48621;SDS011;34421;48.944;9.460;2023-12-20T08:11:48;3.00;;;1.33;;
48621;SDS011;34421;48.944;9.460;2023-12-20T08:14:13;1.90;;;1.20;;
48621;SDS011;34421;48.944;9.460;2023-12-20T08:16:39;2.20;;;1.40;;
48621;SDS011;34421;48.944;9.460;2023-12-20T08:19:05;2.97;;;1.10;;
48621;SDS011;34421;48.944;9.460;2023-12-20T08:21:30;1.95;;;0.98;;
48621;SDS011;34421;48.944;9.460;2023-12-20T08:23:55;1.92;;;1.00;;
48621;SDS011;34421;48.944;9.460;2023-12-20T08:26:21;2.42;;;1.20;;
48621;SDS011;34421;48.944;9.460;2023-12-20T08:28:48;2.30;;;1.10;;
48621;SDS011;34421;48.944;9.460;2023-12-20T08:31:17;2.50;;;1.15;;
48621;SDS011;34421;48.944;9.460;2023-12-20T08:33:43;2.13;;;1.10;;
48621;SDS011;34421;48.944;9.460;2023-12-20T08:36:10;1.95;;;0.88;;
48621;SDS011;34421;48.944;9.460;2023-12-20T08:38:35;2.40;;;0.80;;
48621;SDS011;34421;48.944;9.460;2023-12-20T08:41:01;2.22;;;1.15;;
48621;SDS011;34421;48.944;9.460;2023-12-20T08:43:27;2.25;;;1.05;;
48621;SDS011;34421;48.944;9.460;2023-12-20T08:45:53;1.55;;;0.70;;
48621;SDS011;34421;48.944;9.460;2023-12-20T08:48:19;2.25;;;1.25;;
48621;SDS011;34421;48.944;9.460;2023-12-20T08:50:44;1.88;;;1.00;;
48621;SDS011;34421;48.944;9.460;2023-12-20T08:53:10;1.65;;;1.10;;
48621;SDS011;34421;48.944;9.460;2023-12-20T08:55:35;1.42;;;0.75;;
48621;SDS011;34421;48.944;9.460;2023-12-20T08:58:00;2.05;;;1.33;;
48621;SDS011;34421;48.944;9.460;2023-12-20T09:00:25;2.10;;;0.85;;
48621;SDS011;34421;48.944;9.460;2023-12-20T09:02:53;2.03;;;0.90;;
48621;SDS011;34421;48.944;9.460;2023-12-20T09:05:19;2.30;;;1.17;;
48621;SDS011;34421;48.944;9.460;2023-12-20T09:07:45;2.10;;;1.10;;
48621;SDS011;34421;48.944;9.460;2023-12-20T09:10:10;1.90;;;1.00;;
48621;SDS011;34421;48.944;9.460;2023-12-20T09:12:35;2.00;;;1.10;;
48621;SDS011;34421;48.944;9.460;2023-12-20T09:15:04;3.08;;;1.15;;
48621;SDS011;34421;48.944;9.460;2023-12-20T09:17:30;3.42;;;1.40;;
48621;SDS011;34421;48.944;9.460;2023-12-20T09:19:55;1.42;;;0.68;;
48621;SDS011;34421;48.944;9.460;2023-12-20T09:22:21;1.90;;;1.13;;
48621;SDS011;34421;48.944;9.460;2023-12-20T09:24:46;1.65;;;0.88;;
48621;SDS011;34421;48.944;9.460;2023-12-20T09:27:11;3.58;;;1.25;;
48621;SDS011;34421;48.944;9.460;2023-12-20T09:29:37;2.85;;;0.85;;
48621;SDS011;34421;48.944;9.460;2023-12-20T09:32:02;1.15;;;0.60;;
48621;SDS011;34421;48.944;9.460;2023-12-20T09:34:27;1.52;;;0.60;;
48621;SDS011;34421;48.944;9.460;2023-12-20T09:36:53;1.00;;;0.60;;
48621;SDS011;34421;48.944;9.460;2023-12-20T09:39:19;1.85;;;0.80;;
48621;SDS011;34421;48.944;9.460;2023-12-20T09:41:45;1.85;;;0.85;;
48621;SDS011;34421;48.944;9.460;2023-12-20T09:44:21;1.02;;;0.50;;
48621;SDS011;34421;48.944;9.460;2023-12-20T09:46:49;1.73;;;0.90;;
48621;SDS011;34421;48.944;9.460;2023-12-20T09:49:15;1.90;;;0.63;;
48621;SDS011;34421;48.944;9.460;2023-12-20T09:51:43;1.70;;;0.60;;
48621;SDS011;34421;48.944;9.460;2023-12-20T09:54:11;0.90;;;0.50;;
48621;SDS011;34421;48.944;9.460;2023-12-20T09:56:40;0.40;;;0.30;;
48621;SDS011;34421;48.944;9.460;2023-12-20T09:59:06;0.50;;;0.43;;
48621;SDS011;34421;48.944;9.460;2023-12-20T10:01:34;1.30;;;0.57;;
48621;SDS011;34421;48.944;9.460;2023-12-20T10:04:01;1.92;;;0.50;;
48621;SDS011;34421;48.944;9.460;2023-12-20T10:06:35;3.00;;;0.40;;
48621;SDS011;34421;48.944;9.460;2023-12-20T10:09:01;1.30;;;0.85;;
48621;SDS011;34421;48.944;9.460;2023-12-20T10:11:27;0.90;;;0.35;;
48621;SDS011;34421;48.944;9.460;2023-12-20T10:13:58;1.88;;;0.60;;
48621;SDS011;34421;48.944;9.460;2023-12-20T10:16:26;0.57;;;0.20;;
48621;SDS011;34421;48.944;9.460;2023-12-20T10:18:52;2.80;;;0.40;;
48621;SDS011;34421;48.944;9.460;2023-12-20T10:21:18;0.98;;;0.40;;
48621;SDS011;34421;48.944;9.460;2023-12-20T10:23:43;1.27;;;0.40;;
48621;SDS011;34421;48.944;9.460;2023-12-20T10:26:09;2.55;;;0.43;;
48621;SDS011;34421;48.944;9.460;2023-12-20T10:28:34;1.50;;;0.50;;
48621;SDS011;34421;48.944;9.460;2023-12-20T10:31:00;1.52;;;0.47;;
48621;SDS011;34421;48.944;9.460;2023-12-20T10:33:26;1.70;;;0.50;;
48621;SDS011;34421;48.944;9.460;2023-12-20T10:35:57;1.55;;;0.60;;
48621;SDS011;34421;48.944;9.460;2023-12-20T10:38:22;1.50;;;0.50;;
48621;SDS011;34421;48.944;9.460;2023-12-20T10:40:48;1.52;;;0.35;;
48621;SDS011;34421;48.944;9.460;2023-12-20T10:43:14;0.90;;;0.30;;
48621;SDS011;34421;48.944;9.460;2023-12-20T10:45:41;3.17;;;0.57;;
48621;SDS011;34421;48.944;9.460;2023-12-20T10:48:06;0.73;;;0.50;;
48621;SDS011;34421;48.944;9.460;2023-12-20T10:50:32;2.42;;;0.50;;
48621;SDS011;34421;48.944;9.460;2023-12-20T10:53:01;1.00;;;0.35;;
48621;SDS011;34421;48.944;9.460;2023-12-20T10:55:27;1.77;;;0.40;;
48621;SDS011;34421;48.944;9.460;2023-12-20T10:57:54;3.92;;;0.65;;
48621;SDS011;34421;48.944;9.460;2023-12-20T11:00:38;1.05;;;0.30;;
48621;SDS011;34421;48.944;9.460;2023-12-20T11:03:08;0.52;;;0.28;;
48621;SDS011;34421;48.944;9.460;2023-12-20T11:11:04;1.33;;;0.30;;
48621;SDS011;34421;48.944;9.460;2023-12-20T11:13:41;1.15;;;0.40;;
48621;SDS011;34421;48.944;9.460;2023-12-20T11:16:19;2.08;;;0.20;;
48621;SDS011;34421;48.944;9.460;2023-12-20T11:18:45;0.95;;;0.28;;
48621;SDS011;34421;48.944;9.460;2023-12-20T11:21:10;2.47;;;0.40;;
48621;SDS011;34421;48.944;9.460;2023-12-20T11:23:36;0.95;;;0.30;;
48621;SDS011;34421;48.944;9.460;2023-12-20T11:26:01;1.35;;;0.15;;
48621;SDS011;34421;48.944;9.460;2023-12-20T11:28:27;1.48;;;0.32;;
48621;SDS011;34421;48.944;9.460;2023-12-20T11:30:55;1.90;;;0.40;;
48621;SDS011;34421;48.944;9.460;2023-12-20T11:33:31;0.63;;;0.20;;
48621;SDS011;34421;48.944;9.460;2023-12-20T11:36:00;2.03;;;0.43;;
48621;SDS011;34421;48.944;9.460;2023-12-20T11:38:27;1.27;;;0.45;;
48621;SDS011;34421;48.944;9.460;2023-12-20T11:40:53;1.70;;;0.55;;
48621;SDS011;34421;48.944;9.460;2023-12-20T11:43:30;2.22;;;0.65;;
48621;SDS011;34421;48.944;9.460;2023-12-20T11:46:02;2.97;;;0.50;;
48621;SDS011;34421;48.944;9.460;2023-12-20T11:48:28;1.52;;;0.45;;
48621;SDS011;34421;48.944;9.460;2023-12-20T11:50:56;0.75;;;0.32;;
48621;SDS011;34421;48.944;9.460;2023-12-20T11:53:21;1.70;;;0.50;;
48621;SDS011;34421;48.944;9.460;2023-12-20T11:55:50;1.23;;;0.40;;
48621;SDS011;34421;48.944;9.460;2023-12-20T11:58:15;0.75;;;0.40;;
48621;SDS011;34421;48.944;9.460;2023-12-20T12:00:41;3.00;;;0.30;;
48621;SDS011;34421;48.944;9.460;2023-12-20T12:03:09;1.40;;;0.60;;
48621;SDS011;34421;48.944;9.460;2023-12-20T12:05:35;1.70;;;0.32;;
48621;SDS011;34421;48.944;9.460;2023-12-20T12:08:01;1.55;;;0.40;;
48621;SDS011;34421;48.944;9.460;2023-12-20T12:10:27;3.33;;;0.40;;
48621;SDS011;34421;48.944;9.460;2023-12-20T12:12:53;0.52;;;0.35;;
48621;SDS011;34421;48.944;9.460;2023-12-20T12:15:19;1.00;;;0.30;;
48621;SDS011;34421;48.944;9.460;2023-12-20T12:17:45;2.67;;;0.40;;
48621;SDS011;34421;48.944;9.460;2023-12-20T12:20:19;1.08;;;0.40;;
48621;SDS011;34421;48.944;9.460;2023-12-20T12:22:45;2.28;;;0.75;;
48621;SDS011;34421;48.944;9.460;2023-12-20T12:25:12;0.55;;;0.30;;
48621;SDS011;34421;48.944;9.460;2023-12-20T12:27:42;1.95;;;0.50;;
48621;SDS011;34421;48.944;9.460;2023-12-20T12:30:08;3.60;;;0.80;;
48621;SDS011;34421;48.944;9.460;2023-12-20T12:32:35;1.35;;;0.52;;
48621;SDS011;34421;48.944;9.460;2023-12-20T12:35:04;1.02;;;0.32;;
48621;SDS011;34421;48.944;9.460;2023-12-20T12:37:31;0.85;;;0.40;;
48621;SDS011;34421;48.944;9.460;2023-12-20T12:39:59;0.95;;;0.30;;
48621;SDS011;34421;48.944;9.460;2023-12-20T12:42:24;1.58;;;0.35;;
48621;SDS011;34421;48.944;9.460;2023-12-20T12:44:53;3.40;;;0.57;;
48621;SDS011;34421;48.944;9.460;2023-12-20T12:47:19;1.40;;;0.40;;
48621;SDS011;34421;48.944;9.460;2023-12-20T12:49:44;1.23;;;0.50;;
48621;SDS011;34421;48.944;9.460;2023-12-20T12:52:09;1.73;;;0.80;;
48621;SDS011;34421;48.944;9.460;2023-12-20T12:54:35;3.15;;;0.60;;
48621;SDS011;34421;48.944;9.460;2023-12-20T12:57:01;0.50;;;0.47;;
48621;SDS011;34421;48.944;9.460;2023-12-20T12:59:27;3.60;;;0.50;;
48621;SDS011;34421;48.944;9.460;2023-12-20T13:01:52;1.48;;;0.50;;
48621;SDS011;34421;48.944;9.460;2023-12-20T13:04:18;2.45;;;0.50;;
48621;SDS011;34421;48.944;9.460;2023-12-20T13:06:43;1.45;;;0.50;;
48621;SDS011;34421;48.944;9.460;2023-12-20T13:09:08;0.55;;;0.30;;
48621;SDS011;34421;48.944;9.460;2023-12-20T13:11:35;1.95;;;0.52;;
48621;SDS011;34421;48.944;9.460;2023-12-20T13:14:00;2.10;;;0.55;;
48621;SDS011;34421;48.944;9.460;2023-12-20T13:16:25;1.48;;;0.50;;
48621;SDS011;34421;48.944;9.460;2023-12-20T13:18:51;2.38;;;0.60;;
48621;SDS011;34421;48.944;9.460;2023-12-20T13:21:17;1.60;;;0.60;;
48621;SDS011;34421;48.944;9.460;2023-12-20T13:23:42;2.35;;;0.77;;
48621;SDS011;34421;48.944;9.460;2023-12-20T13:26:08;1.73;;;0.75;;
48621;SDS011;34421;48.944;9.460;2023-12-20T13:28:35;2.05;;;0.60;;
48621;SDS011;34421;48.944;9.460;2023-12-20T13:31:01;1.45;;;0.47;;
48621;SDS011;34421;48.944;9.460;2023-12-20T13:33:26;3.30;;;0.52;;
48621;SDS011;34421;48.944;9.460;2023-12-20T13:35:52;1.92;;;0.52;;
48621;SDS011;34421;48.944;9.460;2023-12-20T13:38:17;1.10;;;0.50;;
48621;SDS011;34421;48.944;9.460;2023-12-20T13:40:43;1.50;;;0.47;;
48621;SDS011;34421;48.944;9.460;2023-12-20T13:43:08;3.63;;;0.40;;
48621;SDS011;34421;48.944;9.460;2023-12-20T13:45:34;1.35;;;0.40;;
48621;SDS011;34421;48.944;9.460;2023-12-20T13:47:59;1.55;;;0.43;;
48621;SDS011;34421;48.944;9.460;2023-12-20T13:50:24;2.75;;;1.30;;
48621;SDS011;34421;48.944;9.460;2023-12-20T13:52:51;3.00;;;0.47;;
48621;SDS011;34421;48.944;9.460;2023-12-20T13:55:16;0.80;;;0.50;;
48621;SDS011;34421;48.944;9.460;2023-12-20T13:57:42;4.65;;;0.70;;
48621;SDS011;34421;48.944;9.460;2023-12-20T14:00:07;1.95;;;0.50;;
48621;SDS011;34421;48.944;9.460;2023-12-20T14:02:39;1.83;;;0.60;;
48621;SDS011;34421;48.944;9.460;2023-12-20T14:05:06;0.90;;;0.55;;
48621;SDS011;34421;48.944;9.460;2023-12-20T14:07:31;0.68;;;0.32;;
48621;SDS011;34421;48.944;9.460;2023-12-20T14:09:57;1.23;;;0.50;;
48621;SDS011;34421;48.944;9.460;2023-12-20T14:12:24;1.50;;;0.50;;
48621;SDS011;34421;48.944;9.460;2023-12-20T14:14:49;3.72;;;1.30;;
48621;SDS011;34421;48.944;9.460;2023-12-20T14:17:15;2.92;;;0.68;;
48621;SDS011;34421;48.944;9.460;2023-12-20T14:19:40;3.95;;;1.25;;
48621;SDS011;34421;48.944;9.460;2023-12-20T14:22:05;2.70;;;0.63;;
48621;SDS011;34421;48.944;9.460;2023-12-20T14:24:31;0.95;;;0.32;;
48621;SDS011;34421;48.944;9.460;2023-12-20T14:26:57;3.53;;;1.42;;
48621;SDS011;34421;48.944;9.460;2023-12-20T14:29:23;2.95;;;1.10;;
48621;SDS011;34421;48.944;9.460;2023-12-20T14:31:48;4.13;;;1.73;;
48621;SDS011;34421;48.944;9.460;2023-12-20T14:34:14;2.80;;;0.80;;
48621;SDS011;34421;48.944;9.460;2023-12-20T14:36:40;1.80;;;0.65;;
48621;SDS011;34421;48.944;9.460;2023-12-20T14:39:05;1.75;;;0.70;;
48621;SDS011;34421;48.944;9.460;2023-12-20T14:41:31;1.85;;;0.73;;
48621;SDS011;34421;48.944;9.460;2023-12-20T14:43:56;1.08;;;0.40;;
48621;SDS011;34421;48.944;9.460;2023-12-20T14:46:22;2.70;;;0.47;;